createdAt,value
2023-04-28T00:01:06.770Z,-2.05
2023-04-28T00:06:09.928Z,-2.09
2023-04-28T00:11:12.668Z,-2.11
2023-04-28T00:16:15.432Z,-2.11
2023-04-28T00:21:18.192Z,-2.15
2023-04-28T00:26:21.021Z,-2.21
2023-04-28T00:31:23.851Z,-2.24
2023-04-28T00:36:26.841Z,-2.27
2023-04-28T00:41:29.587Z,-2.30
2023-04-28T00:46:34.189Z,-2.38
2023-04-28T00:51:37.017Z,-2.39
2023-04-28T00:56:39.776Z,-2.39
2023-04-28T01:01:42.620Z,-2.43
2023-04-28T01:06:47.099Z,-2.49
2023-04-28T01:11:49.823Z,-2.51
2023-04-28T01:16:53.732Z,-2.53
2023-04-28T01:21:56.855Z,-2.55
2023-04-28T01:26:59.594Z,-2.64
2023-04-28T01:32:02.398Z,-2.74
2023-04-28T01:37:05.223Z,-2.79
2023-04-28T01:42:08.105Z,-2.78
2023-04-28T01:47:11.192Z,-2.78
2023-04-28T01:52:13.899Z,-2.81
2023-04-28T01:57:17.729Z,-2.81
2023-04-28T02:02:20.863Z,-2.81
2023-04-28T02:07:24.224Z,-2.82
2023-04-28T02:12:26.971Z,-2.87
2023-04-28T02:17:32.583Z,-2.87
2023-04-28T02:22:35.361Z,-2.87
2023-04-28T02:27:38.565Z,-2.86
2023-04-28T02:32:41.479Z,-2.91
2023-04-28T02:37:44.596Z,-2.93
2023-04-28T02:42:47.255Z,-2.93
2023-04-28T02:47:50.022Z,-2.94
2023-04-28T02:52:52.833Z,-2.98
2023-04-28T02:57:55.570Z,-2.98
2023-04-28T03:02:58.852Z,-2.94
2023-04-28T03:08:02.116Z,-2.95
2023-04-28T03:13:05.107Z,-2.98
2023-04-28T03:18:07.904Z,-2.97
2023-04-28T03:23:10.955Z,-2.92
2023-04-28T03:28:13.711Z,-2.89
2023-04-28T03:33:16.561Z,-2.87
2023-04-28T03:38:19.411Z,-2.82
2023-04-28T03:43:22.243Z,-2.75
2023-04-28T03:48:25.087Z,-2.67
2023-04-28T03:53:28.155Z,-2.61
2023-04-28T03:58:30.913Z,-2.51
2023-04-28T04:03:33.895Z,-2.38
2023-04-28T04:08:37.454Z,-2.26
2023-04-28T04:13:40.174Z,-2.15
2023-04-28T04:18:42.930Z,-1.99
2023-04-28T04:23:45.834Z,-1.82
2023-04-28T04:28:48.717Z,-1.64
2023-04-28T04:33:51.885Z,-1.45
2023-04-28T04:38:54.873Z,-1.20
2023-04-28T04:43:58.973Z,-0.92
2023-04-28T04:49:02.423Z,-0.63
2023-04-28T04:54:05.356Z,-0.35
2023-04-28T04:59:08.272Z,-0.05
2023-04-28T05:04:11.408Z,0.30
2023-04-28T05:09:14.678Z,0.62
2023-04-28T05:14:18.014Z,0.92
2023-04-28T05:19:21.386Z,1.25
2023-04-28T05:24:24.570Z,1.57
2023-04-28T05:29:27.427Z,1.87
2023-04-28T05:34:30.190Z,2.18
2023-04-28T05:39:32.911Z,2.50
2023-04-28T05:44:35.602Z,2.79
2023-04-28T05:49:38.757Z,3.07
2023-04-28T05:54:42.307Z,3.32
2023-04-28T05:59:45.705Z,3.62
2023-04-28T06:04:49.172Z,3.94
2023-04-28T06:09:52.962Z,4.27
2023-04-28T06:14:56.178Z,4.57
2023-04-28T06:20:00.693Z,4.86
2023-04-28T06:25:04.552Z,5.10
2023-04-28T06:30:08.065Z,5.35
2023-04-28T06:35:29.588Z,5.58
2023-04-28T06:40:41.650Z,5.82
2023-04-28T06:45:44.470Z,6.04
2023-04-28T06:50:47.236Z,6.25
2023-04-28T06:55:50.087Z,6.53
2023-04-28T07:00:53.662Z,6.73
2023-04-28T07:05:58.004Z,6.88
2023-04-28T07:11:04.884Z,7.00
2023-04-28T07:16:08.350Z,7.08
2023-04-28T07:21:11.121Z,7.16
2023-04-28T07:26:16.378Z,7.25
2023-04-28T07:31:19.238Z,7.31
2023-04-28T07:36:22.462Z,7.39
2023-04-28T07:41:27.971Z,7.63
2023-04-28T07:46:31.072Z,7.85
2023-04-28T07:51:34.085Z,7.93
2023-04-28T07:56:36.944Z,8.15
2023-04-28T08:01:39.957Z,8.45
2023-04-28T08:06:42.839Z,8.71
2023-04-28T08:11:45.960Z,9.00
2023-04-28T08:16:48.703Z,9.25
2023-04-28T08:21:51.555Z,9.72
2023-04-28T08:26:55.484Z,9.94
2023-04-28T08:31:58.736Z,10.15
2023-04-28T08:37:02.256Z,10.36
2023-04-28T08:42:05.652Z,11.00
2023-04-28T08:47:13.169Z,11.68
2023-04-28T08:52:17.698Z,12.08
2023-04-28T08:57:21.391Z,12.13
2023-04-28T09:02:24.299Z,11.59
2023-04-28T09:07:27.349Z,11.49
2023-04-28T09:12:38.419Z,11.40
2023-04-28T09:17:49.323Z,11.31
2023-04-28T09:22:53.880Z,11.38
2023-04-28T09:27:56.777Z,11.79
2023-04-28T09:33:08.190Z,12.25
2023-04-28T09:38:13.375Z,12.86
2023-04-28T09:43:28.034Z,13.38
2023-04-28T09:48:32.614Z,13.48
2023-04-28T09:53:38.471Z,13.50
2023-04-28T09:58:44.652Z,13.30
2023-04-28T10:03:49.256Z,12.89
2023-04-28T10:08:52.220Z,12.47
2023-04-28T10:13:55.354Z,12.29
2023-04-28T10:18:58.785Z,12.66
2023-04-28T10:24:27.121Z,12.83
2023-04-28T10:29:32.692Z,13.28
2023-04-28T10:34:35.470Z,13.60
2023-04-28T10:39:38.578Z,13.61
2023-04-28T10:44:41.958Z,13.63
2023-04-28T10:50:01.437Z,13.67
2023-04-28T10:55:33.761Z,13.64
2023-04-28T11:00:37.020Z,13.38
2023-04-28T11:05:39.868Z,13.35
2023-04-28T11:11:01.562Z,13.24
2023-04-28T11:16:04.934Z,13.09
2023-04-28T11:21:08.780Z,13.26
2023-04-28T11:26:11.707Z,13.38
2023-04-28T11:31:18.987Z,13.17
2023-04-28T11:36:26.504Z,12.99
2023-04-28T11:41:29.365Z,13.07
2023-04-28T11:46:32.359Z,13.67
2023-04-28T11:51:39.361Z,13.66
2023-04-28T11:56:42.861Z,13.79
2023-04-28T12:01:49.917Z,13.91
2023-04-28T12:07:05.431Z,13.93
2023-04-28T12:12:18.340Z,13.87
2023-04-28T12:17:29.469Z,13.61
2023-04-28T12:22:50.672Z,13.63
2023-04-28T12:28:02.731Z,14.11
2023-04-28T12:33:06.040Z,14.05
2023-04-28T12:38:11.598Z,13.95
2023-04-28T12:43:15.112Z,13.76
2023-04-28T12:48:18.515Z,13.82
2023-04-28T12:53:21.321Z,13.96
2023-04-28T12:58:24.119Z,14.05
2023-04-28T13:03:30.329Z,14.15
2023-04-28T13:08:34.244Z,14.25
2023-04-28T13:13:37.756Z,13.85
2023-04-28T13:18:40.597Z,13.46
2023-04-28T13:23:43.370Z,13.25
2023-04-28T13:28:47.568Z,13.29
2023-04-28T13:33:51.010Z,13.34
2023-04-28T13:38:53.774Z,13.37
2023-04-28T13:43:56.493Z,13.79
2023-04-28T13:48:59.518Z,14.34
2023-04-28T13:54:05.471Z,15.10
2023-04-28T13:59:08.282Z,15.92
2023-04-28T14:04:11.748Z,16.61
2023-04-28T14:09:14.758Z,17.17
2023-04-28T14:14:17.820Z,17.00
2023-04-28T14:19:21.230Z,16.99
2023-04-28T14:24:24.340Z,18.20
2023-04-28T14:29:27.431Z,19.05
2023-04-28T14:34:30.299Z,19.92
2023-04-28T14:39:33.242Z,20.83
2023-04-28T14:44:36.461Z,21.35
2023-04-28T14:49:39.665Z,21.24
2023-04-28T14:54:42.414Z,21.30
2023-04-28T14:59:45.132Z,21.62
2023-04-28T15:04:49.060Z,21.96
2023-04-28T15:09:51.959Z,22.46
2023-04-28T15:14:54.751Z,21.76
2023-04-28T15:19:57.586Z,20.88
2023-04-28T15:25:00.563Z,21.36
2023-04-28T15:30:03.583Z,22.11
2023-04-28T15:35:06.752Z,23.10
2023-04-28T15:40:15.059Z,23.78
2023-04-28T15:45:20.036Z,24.02
2023-04-28T15:50:22.828Z,23.83
2023-04-28T15:55:25.777Z,24.15
2023-04-28T16:00:28.550Z,24.97
2023-04-28T16:05:32.131Z,25.27
2023-04-28T16:10:35.225Z,25.10
2023-04-28T16:15:38.564Z,24.56
2023-04-28T16:20:41.363Z,24.20
2023-04-28T16:25:44.110Z,24.13
2023-04-28T16:30:47.617Z,24.32
2023-04-28T16:35:55.114Z,24.41
2023-04-28T16:40:57.865Z,23.84
2023-04-28T16:46:00.641Z,23.58
2023-04-28T16:51:07.040Z,23.76
2023-04-28T16:56:10.778Z,24.10
2023-04-28T17:01:14.258Z,24.08
2023-04-28T17:06:17.041Z,23.23
2023-04-28T17:11:19.781Z,22.27
2023-04-28T17:16:22.735Z,21.34
2023-04-28T17:21:28.796Z,20.79
2023-04-28T17:26:32.345Z,19.39
2023-04-28T17:31:38.218Z,17.65
2023-04-28T17:36:42.420Z,16.02
2023-04-28T17:41:46.840Z,14.70
2023-04-28T17:46:49.676Z,13.50
2023-04-28T17:51:52.360Z,12.47
2023-04-28T17:56:56.078Z,11.54
2023-04-28T18:01:59.137Z,10.68
2023-04-28T18:07:02.400Z,9.87
2023-04-28T18:12:21.212Z,9.15
2023-04-28T18:17:25.646Z,8.52
2023-04-28T18:22:28.419Z,8.00
2023-04-28T18:27:31.318Z,7.55
2023-04-28T18:32:34.527Z,7.15
2023-04-28T18:37:37.189Z,6.75
2023-04-28T18:42:39.958Z,6.39
2023-04-28T18:47:43.501Z,6.02
2023-04-28T18:52:46.819Z,5.69
2023-04-28T18:57:50.072Z,5.40
2023-04-28T19:02:52.907Z,5.15
2023-04-28T19:07:55.838Z,4.92
2023-04-28T19:12:59.187Z,4.71
2023-04-28T19:18:02.219Z,4.52
2023-04-28T19:23:05.128Z,4.35
2023-04-28T19:28:08.584Z,4.17
2023-04-28T19:33:11.362Z,4.01
2023-04-28T19:38:14.598Z,3.85
2023-04-28T19:43:18.147Z,3.71
2023-04-28T19:48:21.072Z,3.55
2023-04-28T19:53:24.108Z,3.41
2023-04-28T19:58:26.852Z,3.26
2023-04-28T20:03:30.126Z,3.10
2023-04-28T20:08:32.942Z,2.96
2023-04-28T20:13:36.134Z,2.82
2023-04-28T20:18:39.755Z,2.69
2023-04-28T20:23:42.747Z,2.56
2023-04-28T20:28:47.544Z,2.48
2023-04-28T20:33:50.861Z,2.39
2023-04-28T20:38:53.804Z,2.30
2023-04-28T20:43:56.642Z,2.22
2023-04-28T20:48:59.716Z,2.14
2023-04-28T20:54:04.471Z,2.05
2023-04-28T20:59:07.334Z,1.93
2023-04-28T21:04:10.299Z,1.83
2023-04-28T21:09:14.121Z,1.73
2023-04-28T21:14:16.911Z,1.65
2023-04-28T21:19:19.867Z,1.56
2023-04-28T21:24:22.593Z,1.50
2023-04-28T21:29:26.643Z,1.44
2023-04-28T21:34:29.483Z,1.39
2023-04-28T21:39:32.293Z,1.33
2023-04-28T21:44:35.079Z,1.29
2023-04-28T21:49:37.908Z,1.27
2023-04-28T21:54:41.050Z,1.26
2023-04-28T21:59:44.148Z,1.23
2023-04-28T22:04:47.040Z,1.21
2023-04-28T22:09:49.956Z,1.21
2023-04-28T22:14:53.096Z,1.21
2023-04-28T22:19:55.913Z,1.21
2023-04-28T22:24:58.692Z,1.21
2023-04-28T22:30:01.527Z,1.21
2023-04-28T22:35:04.719Z,1.20
2023-04-28T22:40:08.949Z,1.18
2023-04-28T22:45:12.164Z,1.17
2023-04-28T22:50:14.981Z,1.15
2023-04-28T22:55:19.523Z,1.13
2023-04-28T23:00:22.906Z,1.12
2023-04-28T23:05:25.645Z,1.10
2023-04-28T23:10:28.409Z,1.10
2023-04-28T23:15:31.388Z,1.09
2023-04-28T23:20:34.562Z,1.08
2023-04-28T23:25:41.992Z,1.09
2023-04-28T23:30:45.211Z,1.09
2023-04-28T23:35:47.950Z,1.10
2023-04-28T23:40:50.711Z,1.09
2023-04-28T23:45:53.820Z,1.07
2023-04-28T23:50:56.715Z,1.03
2023-04-28T23:55:59.457Z,0.97
